Time;durP1;ratioP1;P1;durP2;ratioP2;P2;SDS_P1;SDS_P2;PMS_P1;PMS_P2;Temp;Humidity;BMP_temperature;BMP_pressure;BME280_temperature;BME280_humidity;BME280_pressure;Samples;Min_cycle;Max_cycle;Signal;HPM_P1;HPM_P2
2021/12/26 00:02:12;;;;;;;15.07;10.88;;;10.90;99.90;;;;;;5021749;28;20133;-52
2021/12/26 00:04:37;;;;;;;14.35;10.98;;;10.70;99.90;;;;;;5028763;28;20057;-52
2021/12/26 00:07:04;;;;;;;14.88;10.23;;;10.80;99.90;;;;;;5019713;28;20036;-51
2021/12/26 00:09:30;;;;;;;14.13;10.63;;;10.90;99.90;;;;;;4985318;28;20045;-52
2021/12/26 00:11:58;;;;;;;17.23;10.40;;;10.90;99.90;;;;;;5022504;28;20038;-52
2021/12/26 00:14:25;;;;;;;15.20;10.07;;;10.80;99.90;;;;;;5020702;28;20103;-52
2021/12/26 00:16:51;;;;;;;15.20;10.68;;;10.80;99.90;;;;;;5025737;28;20103;-51
2021/12/26 00:19:17;;;;;;;16.33;10.60;;;10.90;99.90;;;;;;5014136;28;20022;-52
2021/12/26 00:21:43;;;;;;;14.40;10.32;;;10.80;99.90;;;;;;5007724;28;20042;-53
2021/12/26 00:24:09;;;;;;;15.02;10.02;;;10.70;99.90;;;;;;5003318;28;20132;-52
2021/12/26 00:26:37;;;;;;;15.40;10.35;;;10.70;99.90;;;;;;5048139;28;20041;-52
2021/12/26 00:29:03;;;;;;;14.07;10.10;;;10.60;99.90;;;;;;5047209;28;20060;-52
2021/12/26 00:31:29;;;;;;;16.33;10.43;;;10.70;99.90;;;;;;5039048;28;20037;-53
2021/12/26 00:33:55;;;;;;;17.00;10.27;;;10.70;99.90;;;;;;5041551;28;20024;-52
2021/12/26 00:36:21;;;;;;;15.52;11.45;;;10.60;99.90;;;;;;5060662;28;20037;-52
2021/12/26 00:38:47;;;;;;;15.30;10.98;;;10.60;99.90;;;;;;5047474;28;20381;-52
2021/12/26 00:41:13;;;;;;;16.90;11.30;;;10.70;99.90;;;;;;5039960;28;20025;-51
2021/12/26 00:43:39;;;;;;;17.38;11.13;;;10.70;99.90;;;;;;5045514;28;20556;-52
2021/12/26 00:46:05;;;;;;;15.93;11.05;;;10.80;99.90;;;;;;5050898;28;20057;-52
2021/12/26 00:48:31;;;;;;;14.20;10.23;;;10.90;99.90;;;;;;5039742;28;20382;-53
2021/12/26 00:50:57;;;;;;;13.38;9.45;;;10.80;99.90;;;;;;5045222;28;20064;-52
2021/12/26 00:53:24;;;;;;;14.23;10.27;;;10.90;99.90;;;;;;5045023;28;20040;-53
2021/12/26 00:55:51;;;;;;;14.30;9.38;;;10.70;99.90;;;;;;5046811;28;20021;-52
2021/12/26 00:58:17;;;;;;;16.55;10.55;;;10.50;99.90;;;;;;5038596;28;20033;-52
2021/12/26 01:00:46;;;;;;;14.85;9.60;;;10.40;99.90;;;;;;5046707;28;20435;-52
2021/12/26 01:03:13;;;;;;;13.57;10.70;;;10.40;99.90;;;;;;5045079;28;20033;-52
2021/12/26 01:05:44;;;;;;;15.13;10.70;;;10.30;99.90;;;;;;5051491;28;20041;-52
2021/12/26 01:08:13;;;;;;;18.05;12.43;;;10.40;99.90;;;;;;5046091;28;20037;-52
2021/12/26 01:10:43;;;;;;;17.75;11.25;;;10.50;99.90;;;;;;5044155;28;20064;-52
2021/12/26 01:13:25;;;;;;;16.08;11.25;;;10.60;99.90;;;;;;5043230;28;20121;-52
2021/12/26 01:15:54;;;;;;;;;;;10.60;99.90;;;;;;5044289;28;20381;-52
2021/12/26 01:18:21;;;;;;;15.85;10.90;;;10.60;99.90;;;;;;5040630;28;19916;-52
2021/12/26 01:23:18;;;;;;;17.20;12.15;;;10.50;99.90;;;;;;5044506;28;20036;-52
2021/12/26 01:25:44;;;;;;;17.10;13.18;;;10.40;99.90;;;;;;5041148;28;20086;-51
2021/12/26 01:28:11;;;;;;;14.52;10.38;;;10.50;99.90;;;;;;5039700;28;20535;-52
2021/12/26 01:30:39;;;;;;;15.93;10.93;;;10.50;99.90;;;;;;5039029;28;20029;-52
2021/12/26 01:33:10;;;;;;;17.73;9.80;;;10.60;99.90;;;;;;5046066;28;20045;-52
2021/12/26 01:35:37;;;;;;;14.23;10.75;;;10.60;99.90;;;;;;5025308;28;20132;-52
2021/12/26 01:38:04;;;;;;;16.92;10.07;;;10.80;99.90;;;;;;5022557;28;20037;-52
2021/12/26 01:40:34;;;;;;;14.90;9.95;;;10.80;99.90;;;;;;5017985;28;20046;-53
2021/12/26 01:43:02;;;;;;;13.80;9.90;;;10.90;99.90;;;;;;5019722;28;20038;-52
2021/12/26 01:45:28;;;;;;;16.65;9.95;;;10.90;99.90;;;;;;5028280;28;20493;-52
2021/12/26 01:48:01;;;;;;;19.38;11.18;;;10.90;99.90;;;;;;5014491;28;20029;-52
2021/12/26 01:50:28;;;;;;;14.65;10.52;;;10.90;99.90;;;;;;5023607;28;20509;-52
2021/12/26 01:52:54;;;;;;;14.45;10.85;;;10.70;99.90;;;;;;5017937;28;20057;-52
2021/12/26 01:55:23;;;;;;;17.67;11.60;;;10.60;99.90;;;;;;5014946;28;20046;-52
2021/12/26 01:57:51;;;;;;;15.43;10.57;;;10.60;99.90;;;;;;5015549;28;20038;-52
2021/12/26 02:00:17;;;;;;;16.48;10.85;;;10.50;99.90;;;;;;5024407;28;20136;-53
2021/12/26 02:02:43;;;;;;;15.75;11.50;;;10.50;99.90;;;;;;5004088;28;20044;-52
2021/12/26 02:05:09;;;;;;;16.52;11.07;;;10.40;99.90;;;;;;5023485;28;20120;-53
2021/12/26 02:07:35;;;;;;;21.38;11.18;;;10.40;99.90;;;;;;5040185;28;20091;-53
2021/12/26 02:10:01;;;;;;;17.45;10.45;;;10.40;99.90;;;;;;5040314;28;20049;-52
2021/12/26 02:12:27;;;;;;;23.02;11.95;;;10.40;99.90;;;;;;5038557;28;20025;-53
2021/12/26 02:14:53;;;;;;;15.15;10.38;;;10.50;99.90;;;;;;5022481;28;20041;-52
2021/12/26 02:17:19;;;;;;;16.77;10.30;;;10.60;99.90;;;;;;5060075;28;20055;-53
2021/12/26 02:19:46;;;;;;;15.00;10.00;;;10.70;99.90;;;;;;5038789;28;20025;-52
2021/12/26 02:22:17;;;;;;;14.13;9.95;;;10.80;99.90;;;;;;5040187;28;20033;-52
2021/12/26 02:27:32;;;;;;;13.48;8.90;;;10.60;99.90;;;;;;5046680;28;20384;-53
2021/12/26 02:30:08;;;;;;;14.23;9.10;;;10.40;99.90;;;;;;5036808;28;20120;-51
2021/12/26 02:32:34;;;;;;;12.65;8.38;;;10.40;99.90;;;;;;5048251;28;20037;-52
2021/12/26 02:34:59;;;;;;;11.98;7.30;;;10.30;99.90;;;;;;5047332;28;20346;-53
2021/12/26 02:37:26;;;;;;;12.10;7.35;;;10.20;99.90;;;;;;5054863;28;20034;-52
2021/12/26 02:39:52;;;;;;;10.18;5.80;;;10.20;99.90;;;;;;5036511;28;20342;-52
2021/12/26 02:42:20;;;;;;;11.25;5.95;;;10.10;99.90;;;;;;5045988;28;20025;-52
2021/12/26 02:44:47;;;;;;;10.07;5.78;;;10.00;99.90;;;;;;5045601;28;20029;-53
2021/12/26 02:47:14;;;;;;;9.43;5.15;;;10.00;99.90;;;;;;5042842;28;20029;-53
2021/12/26 02:49:40;;;;;;;8.57;6.45;;;9.90;99.90;;;;;;5040119;28;20079;-53
2021/12/26 02:52:06;;;;;;;8.95;6.57;;;9.90;99.90;;;;;;5048429;28;20033;-52
2021/12/26 02:54:32;;;;;;;12.35;7.35;;;9.90;99.90;;;;;;5036586;28;20025;-53
2021/12/26 02:56:58;;;;;;;11.02;6.30;;;10.10;99.90;;;;;;5046918;28;20511;-53
2021/12/26 02:59:24;;;;;;;11.13;6.82;;;10.20;99.90;;;;;;5049823;28;20056;-52
2021/12/26 03:01:49;;;;;;;9.02;6.70;;;10.20;99.90;;;;;;5042351;28;20565;-54
2021/12/26 03:04:15;;;;;;;8.82;6.63;;;10.20;99.90;;;;;;5042390;28;20108;-52
2021/12/26 03:06:59;;;;;;;11.65;6.15;;;10.20;99.90;;;;;;5043374;28;20064;-53
2021/12/26 03:09:27;;;;;;;8.93;5.55;;;10.10;99.90;;;;;;5041363;28;20551;-52
2021/12/26 03:11:53;;;;;;;11.07;6.13;;;10.00;99.90;;;;;;5041909;28;20029;-53
2021/12/26 03:14:19;;;;;;;9.48;6.78;;;10.00;99.90;;;;;;5049775;28;20541;-53
2021/12/26 03:16:49;;;;;;;10.07;6.78;;;10.20;99.90;;;;;;5048633;28;20025;-53
2021/12/26 03:19:15;;;;;;;9.07;6.07;;;10.30;99.90;;;;;;5051658;28;20096;-53
2021/12/26 03:21:41;;;;;;;11.63;6.00;;;10.30;99.90;;;;;;5047739;28;20159;-53
2021/12/26 03:24:07;;;;;;;10.13;6.97;;;10.30;99.90;;;;;;5045709;28;20033;-53
2021/12/26 03:26:33;;;;;;;11.68;8.98;;;10.30;99.90;;;;;;5049304;28;20037;-52
2021/12/26 03:28:58;;;;;;;12.35;8.88;;;10.30;99.90;;;;;;5044189;28;20476;-52
2021/12/26 03:31:24;;;;;;;11.80;9.10;;;10.40;99.90;;;;;;5044860;28;20401;-53
2021/12/26 03:33:50;;;;;;;10.88;8.35;;;10.40;99.90;;;;;;5059297;28;20075;-51
2021/12/26 03:36:16;;;;;;;9.32;6.13;;;10.60;99.90;;;;;;5025569;28;20487;-52
2021/12/26 03:38:42;;;;;;;11.48;6.72;;;10.50;99.90;;;;;;5050897;28;20370;-52
2021/12/26 03:41:08;;;;;;;11.45;8.00;;;10.30;99.90;;;;;;5041238;28;20033;-52
2021/12/26 03:43:34;;;;;;;10.75;7.03;;;10.40;99.90;;;;;;5045944;28;20030;-52
2021/12/26 03:46:00;;;;;;;12.40;6.68;;;10.30;99.90;;;;;;5048218;28;20033;-52
2021/12/26 03:48:26;;;;;;;10.35;6.13;;;10.20;99.90;;;;;;5050576;28;20087;-53
2021/12/26 03:50:54;;;;;;;9.85;6.57;;;10.30;99.90;;;;;;5052769;28;20124;-53
2021/12/26 03:53:20;;;;;;;7.30;5.55;;;10.30;99.90;;;;;;5045029;28;20029;-53
2021/12/26 03:55:47;;;;;;;12.18;6.65;;;10.10;99.90;;;;;;5046274;28;20526;-53
2021/12/26 03:58:14;;;;;;;10.10;6.05;;;10.00;99.90;;;;;;5045791;28;20056;-52
2021/12/26 04:00:40;;;;;;;9.50;6.03;;;10.20;99.90;;;;;;5039546;28;20104;-51
2021/12/26 04:03:07;;;;;;;22.23;15.95;;;10.50;99.90;;;;;;5050556;28;20051;-52
2021/12/26 04:05:34;;;;;;;15.88;11.02;;;10.70;99.90;;;;;;5046454;28;20121;-52
2021/12/26 04:08:00;;;;;;;11.80;9.50;;;10.90;99.90;;;;;;5039349;28;20041;-52
2021/12/26 04:10:26;;;;;;;15.73;10.57;;;11.00;99.90;;;;;;5043302;28;20057;-52
2021/12/26 04:12:54;;;;;;;19.98;12.70;;;11.00;99.90;;;;;;5050080;28;20036;-52
2021/12/26 04:15:23;;;;;;;11.82;7.50;;;10.80;99.90;;;;;;5045461;28;20026;-53
2021/12/26 04:17:51;;;;;;;25.27;13.05;;;10.60;99.90;;;;;;5041738;28;20029;-52
2021/12/26 04:20:18;;;;;;;16.08;10.07;;;10.50;99.90;;;;;;5029734;28;20393;-52
2021/12/26 04:22:44;;;;;;;34.53;20.52;;;10.30;99.90;;;;;;5044226;28;20025;-52
2021/12/26 04:25:10;;;;;;;20.73;12.27;;;10.30;99.90;;;;;;5050187;28;20087;-52
2021/12/26 04:27:36;;;;;;;19.15;12.77;;;10.10;99.90;;;;;;5047829;28;20032;-53
2021/12/26 04:30:05;;;;;;;15.77;10.50;;;10.00;99.90;;;;;;5047521;28;20540;-52
2021/12/26 04:32:31;;;;;;;18.00;11.20;;;9.90;99.90;;;;;;5026496;28;20502;-52
2021/12/26 04:34:56;;;;;;;13.98;9.68;;;9.90;99.90;;;;;;5052669;28;20123;-52
2021/12/26 04:37:22;;;;;;;11.30;8.18;;;9.90;99.90;;;;;;5052451;28;20037;-53
2021/12/26 04:39:48;;;;;;;10.75;7.30;;;10.00;99.90;;;;;;5048131;28;20072;-53
2021/12/26 04:42:14;;;;;;;10.35;7.15;;;9.90;99.90;;;;;;5042760;28;20164;-53
2021/12/26 04:44:40;;;;;;;13.32;7.15;;;10.00;99.90;;;;;;5048651;28;20057;-52
2021/12/26 04:47:06;;;;;;;12.23;7.63;;;10.10;99.90;;;;;;5043462;28;20025;-53
2021/12/26 04:49:32;;;;;;;11.63;7.13;;;10.20;99.90;;;;;;5012373;28;20061;-52
2021/12/26 04:51:58;;;;;;;9.30;6.75;;;10.20;99.90;;;;;;5043161;28;20037;-52
2021/12/26 04:54:23;;;;;;;10.60;8.05;;;10.20;99.90;;;;;;5037480;28;20021;-52
2021/12/26 04:56:49;;;;;;;10.90;7.43;;;10.30;99.90;;;;;;5049354;28;20465;-51
2021/12/26 04:59:15;;;;;;;9.93;8.23;;;10.40;99.90;;;;;;5033701;28;20033;-51
2021/12/26 05:01:41;;;;;;;12.55;9.23;;;10.30;99.90;;;;;;5033532;28;20041;-52
2021/12/26 05:04:07;;;;;;;15.10;9.23;;;10.30;99.90;;;;;;5047831;28;20046;-52
2021/12/26 05:06:33;;;;;;;13.55;9.68;;;10.50;99.90;;;;;;5045264;28;20030;-52
2021/12/26 05:08:58;;;;;;;14.18;10.07;;;10.40;99.90;;;;;;5037581;28;20050;-53
2021/12/26 05:11:24;;;;;;;16.13;11.07;;;10.40;99.90;;;;;;5044712;28;20025;-53
2021/12/26 05:13:50;;;;;;;12.90;10.13;;;10.60;99.90;;;;;;5047740;28;20029;-52
2021/12/26 05:16:16;;;;;;;17.08;10.73;;;10.70;99.90;;;;;;5037837;28;20045;-53
2021/12/26 05:18:41;;;;;;;14.63;10.63;;;10.80;99.90;;;;;;5048557;28;20492;-53
2021/12/26 05:21:07;;;;;;;13.95;9.98;;;10.80;99.90;;;;;;5050031;28;20021;-52
2021/12/26 05:23:33;;;;;;;15.63;9.75;;;10.90;99.90;;;;;;5044681;28;20040;-52
2021/12/26 05:25:59;;;;;;;13.90;10.02;;;11.00;99.90;;;;;;5044772;28;20029;-52
2021/12/26 05:28:24;;;;;;;14.27;9.77;;;11.00;99.90;;;;;;5049323;28;20029;-51
2021/12/26 05:30:50;;;;;;;13.07;10.60;;;11.00;99.90;;;;;;5046516;28;20036;-53
2021/12/26 05:33:16;;;;;;;13.20;9.85;;;11.10;99.90;;;;;;5021246;28;20037;-53
2021/12/26 05:35:42;;;;;;;12.90;9.50;;;11.20;99.90;;;;;;5030575;28;20033;-52
2021/12/26 05:38:08;;;;;;;12.65;9.30;;;11.20;99.90;;;;;;5043353;28;20079;-52
2021/12/26 05:40:34;;;;;;;13.40;10.13;;;10.90;99.90;;;;;;5041830;28;20052;-53
2021/12/26 05:43:00;;;;;;;13.10;10.57;;;10.80;99.90;;;;;;5044163;28;20032;-52
2021/12/26 05:45:26;;;;;;;17.27;11.70;;;10.70;99.90;;;;;;5045621;28;20041;-52
2021/12/26 05:47:51;;;;;;;12.48;9.80;;;10.90;99.90;;;;;;5047130;28;20040;-52
2021/12/26 05:50:19;;;;;;;13.82;10.80;;;10.80;99.90;;;;;;5033309;28;20080;-52
2021/12/26 05:52:45;;;;;;;14.48;10.75;;;11.00;99.90;;;;;;5046558;28;20033;-54
2021/12/26 05:55:11;;;;;;;12.27;9.02;;;11.10;99.90;;;;;;5042425;28;20145;-53
2021/12/26 05:57:37;;;;;;;11.85;9.75;;;11.00;99.90;;;;;;5039486;28;20049;-53
2021/12/26 06:00:10;;;;;;;11.15;10.00;;;11.10;99.90;;;;;;5045565;28;20033;-52
2021/12/26 06:02:36;;;;;;;19.27;13.65;;;11.30;99.90;;;;;;5045963;28;20400;-54
2021/12/26 06:05:02;;;;;;;17.35;13.05;;;11.30;99.90;;;;;;5050250;28;20041;-52
2021/12/26 06:07:28;;;;;;;13.90;9.63;;;11.20;99.90;;;;;;5039872;28;20100;-53
2021/12/26 06:09:54;;;;;;;10.32;7.70;;;11.00;99.90;;;;;;5037178;28;20052;-52
2021/12/26 06:12:19;;;;;;;13.52;11.00;;;11.00;99.90;;;;;;5042182;28;20034;-52
2021/12/26 06:14:45;;;;;;;21.42;15.88;;;10.90;99.90;;;;;;5058593;28;20040;-52
2021/12/26 06:17:11;;;;;;;33.22;25.67;;;10.70;99.90;;;;;;5027267;28;20049;-52
2021/12/26 06:19:37;;;;;;;30.85;20.00;;;10.60;99.90;;;;;;5051585;28;20029;-53
2021/12/26 06:22:03;;;;;;;18.65;15.05;;;10.50;99.90;;;;;;5044172;28;20485;-52
2021/12/26 06:24:30;;;;;;;24.35;17.42;;;10.30;99.90;;;;;;5042916;28;20083;-52
2021/12/26 06:26:56;;;;;;;27.95;20.67;;;10.30;99.90;;;;;;5040011;28;20120;-52
2021/12/26 06:29:22;;;;;;;29.35;21.58;;;10.40;99.90;;;;;;5037570;28;20116;-53
2021/12/26 06:31:48;;;;;;;32.15;23.17;;;10.30;99.90;;;;;;5048187;28;20044;-53
2021/12/26 06:34:14;;;;;;;28.30;22.15;;;10.20;99.90;;;;;;5021135;28;20034;-53
2021/12/26 06:36:40;;;;;;;30.05;23.25;;;10.30;99.90;;;;;;5043676;28;20064;-52
2021/12/26 06:39:06;;;;;;;26.42;22.20;;;10.50;99.90;;;;;;5046152;28;20060;-52
2021/12/26 06:41:33;;;;;;;27.52;21.27;;;10.70;99.90;;;;;;5062191;28;20138;-53
2021/12/26 06:43:59;;;;;;;26.65;20.02;;;10.70;99.90;;;;;;5056004;28;20099;-52
2021/12/26 06:46:25;;;;;;;23.60;17.58;;;10.70;99.90;;;;;;5061408;28;20083;-53
2021/12/26 06:48:51;;;;;;;21.25;15.95;;;10.50;99.90;;;;;;5055357;28;20374;-54
2021/12/26 06:51:18;;;;;;;24.20;19.17;;;10.30;99.90;;;;;;5054273;28;20032;-53
2021/12/26 06:53:44;;;;;;;21.00;16.00;;;10.20;99.90;;;;;;5058979;28;20060;-53
2021/12/26 06:56:09;;;;;;;21.33;17.77;;;10.30;99.90;;;;;;5051173;28;20070;-52
2021/12/26 06:58:35;;;;;;;21.38;14.90;;;10.30;99.90;;;;;;5033779;28;20087;-52
2021/12/26 07:01:01;;;;;;;30.63;20.98;;;10.40;99.90;;;;;;5061803;28;20416;-52
2021/12/26 07:03:27;;;;;;;16.95;12.70;;;10.30;99.90;;;;;;5066810;28;20507;-52
2021/12/26 07:05:53;;;;;;;21.75;15.27;;;10.40;99.90;;;;;;5060375;28;20045;-52
2021/12/26 07:08:18;;;;;;;19.33;17.30;;;10.30;99.90;;;;;;5053922;28;20072;-52
2021/12/26 07:10:44;;;;;;;26.13;20.65;;;10.30;99.90;;;;;;5034620;28;20079;-52
2021/12/26 07:13:10;;;;;;;13.00;10.80;;;10.20;99.90;;;;;;5032264;28;20042;-52
2021/12/26 07:15:37;;;;;;;13.88;9.10;;;10.20;99.90;;;;;;5045341;28;20390;-51
2021/12/26 07:18:03;;;;;;;13.10;8.30;;;10.10;99.90;;;;;;5041525;28;20079;-52
2021/12/26 07:20:29;;;;;;;11.90;9.45;;;10.00;99.90;;;;;;5048311;28;20029;-52
2021/12/26 07:22:55;;;;;;;13.15;9.50;;;10.10;99.90;;;;;;5034140;28;20041;-52
2021/12/26 07:25:21;;;;;;;13.23;9.48;;;10.10;99.90;;;;;;5044622;28;20457;-52
2021/12/26 07:27:46;;;;;;;11.85;9.50;;;10.20;99.90;;;;;;5041043;28;20026;-52
2021/12/26 07:30:12;;;;;;;10.32;8.32;;;10.20;99.90;;;;;;5037873;28;20026;-52
2021/12/26 07:32:38;;;;;;;12.43;6.00;;;9.60;99.90;;;;;;5066061;28;20068;-52
2021/12/26 07:35:05;;;;;;;15.93;10.75;;;9.20;99.90;;;;;;5044696;28;20026;-52
2021/12/26 07:37:30;;;;;;;14.50;9.07;;;8.90;99.90;;;;;;5042694;28;20025;-52
2021/12/26 07:39:56;;;;;;;15.45;12.02;;;8.70;99.90;;;;;;5053509;28;20036;-52
2021/12/26 07:42:22;;;;;;;172.85;157.02;;;9.00;99.90;;;;;;5051463;28;20132;-52
2021/12/26 07:44:48;;;;;;;9.63;8.43;;;8.80;99.90;;;;;;5046466;28;20049;-52
2021/12/26 07:47:14;;;;;;;9.70;8.70;;;8.60;99.90;;;;;;5028161;28;20060;-53
2021/12/26 07:49:40;;;;;;;10.88;9.10;;;8.50;99.90;;;;;;5048017;28;20033;-52
2021/12/26 07:52:12;;;;;;;10.95;8.57;;;8.40;99.90;;;;;;5047554;28;20392;-52
2021/12/26 07:54:39;;;;;;;14.45;12.93;;;8.20;99.90;;;;;;5054054;28;20044;-53
2021/12/26 07:57:06;;;;;;;24.98;16.80;;;8.00;99.90;;;;;;5023295;28;20124;-52
2021/12/26 07:59:34;;;;;;;22.10;15.30;;;7.90;99.90;;;;;;5038753;28;20037;-52
2021/12/26 08:02:01;;;;;;;36.08;20.33;;;7.80;99.90;;;;;;5043909;28;20067;-52
2021/12/26 08:04:26;;;;;;;26.10;19.00;;;7.60;99.90;;;;;;5053548;28;20037;-57
2021/12/26 08:06:57;;;;;;;13.70;11.73;;;7.70;99.90;;;;;;4992883;28;20034;-52
2021/12/26 08:09:23;;;;;;;18.15;12.38;;;7.80;99.90;;;;;;5052282;28;20045;-52
2021/12/26 08:11:49;;;;;;;7.68;5.60;;;8.00;99.90;;;;;;5049933;28;20431;-52
2021/12/26 08:14:18;;;;;;;15.60;12.20;;;7.90;99.90;;;;;;5044885;28;20037;-53
2021/12/26 08:16:44;;;;;;;14.55;9.98;;;8.00;99.90;;;;;;5040534;28;20136;-52
2021/12/26 08:19:10;;;;;;;20.10;13.45;;;7.70;99.90;;;;;;5051044;28;20473;-52
2021/12/26 08:21:36;;;;;;;17.20;12.52;;;7.60;99.90;;;;;;5044866;28;20143;-52
2021/12/26 08:24:02;;;;;;;10.10;8.75;;;7.50;99.90;;;;;;5046031;28;20100;-54
2021/12/26 08:26:28;;;;;;;15.40;11.30;;;7.50;99.90;;;;;;5051402;28;20025;-52
2021/12/26 08:28:54;;;;;;;10.40;8.13;;;7.20;99.90;;;;;;5044358;28;20405;-53
2021/12/26 08:31:21;;;;;;;10.70;7.97;;;7.10;99.90;;;;;;5038706;28;20167;-52
2021/12/26 08:33:47;;;;;;;12.07;9.82;;;7.20;99.90;;;;;;5033086;28;20041;-53
2021/12/26 08:36:13;;;;;;;8.50;6.28;;;7.20;99.90;;;;;;5052649;28;20026;-52
2021/12/26 08:38:39;;;;;;;244.07;224.35;;;6.80;99.90;;;;;;5046486;28;20100;-52
2021/12/26 08:41:06;;;;;;;11.38;8.65;;;6.70;99.90;;;;;;5046674;28;20021;-52
2021/12/26 08:43:32;;;;;;;11.90;8.40;;;6.90;99.90;;;;;;5046247;28;20029;-62
2021/12/26 08:45:58;;;;;;;9.88;7.47;;;6.90;99.90;;;;;;5041422;28;20487;-52
2021/12/26 09:04:01;;;;;;;11.93;9.25;;;6.60;99.90;;;;;;5070442;28;20913;-51
2021/12/26 09:06:27;;;;;;;13.00;10.77;;;6.80;99.90;;;;;;5045534;28;20033;-51
2021/12/26 09:08:53;;;;;;;12.70;9.73;;;7.00;99.90;;;;;;5048919;28;20030;-53
2021/12/26 09:11:18;;;;;;;12.27;9.85;;;7.00;99.90;;;;;;5037690;28;20436;-50
2021/12/26 09:13:45;;;;;;;15.75;10.55;;;6.80;99.90;;;;;;5042267;28;20029;-51
2021/12/26 09:16:11;;;;;;;13.73;10.95;;;6.80;99.90;;;;;;5034799;28;20088;-53
2021/12/26 09:18:38;;;;;;;13.90;12.05;;;6.90;99.90;;;;;;5043534;28;20064;-54
2021/12/26 09:21:04;;;;;;;13.90;10.65;;;6.70;99.90;;;;;;5042349;28;20026;-54
2021/12/26 09:23:30;;;;;;;19.83;15.57;;;6.70;99.90;;;;;;5048790;28;20064;-51
2021/12/26 09:25:56;;;;;;;21.70;16.58;;;6.70;99.90;;;;;;4999595;28;20042;-50
2021/12/26 09:28:21;;;;;;;22.33;15.85;;;6.50;99.90;;;;;;5043544;28;20033;-50
2021/12/26 09:30:47;;;;;;;13.88;11.20;;;6.80;99.90;;;;;;5042581;28;20392;-54
2021/12/26 09:33:19;;;;;;;18.20;12.45;;;6.90;99.90;;;;;;5003361;28;20049;-51
2021/12/26 09:35:49;;;;;;;15.68;12.68;;;6.70;99.90;;;;;;5007528;28;20048;-55
2021/12/26 09:38:16;;;;;;;10.80;8.82;;;6.60;99.90;;;;;;5048480;28;20465;-52
2021/12/26 09:40:42;;;;;;;16.15;12.40;;;6.50;99.90;;;;;;5040813;28;20040;-52
2021/12/26 09:43:08;;;;;;;17.40;13.35;;;6.60;99.90;;;;;;5041910;28;20064;-52
2021/12/26 09:45:34;;;;;;;16.70;12.82;;;6.60;99.90;;;;;;5008544;28;20039;-52
2021/12/26 09:48:00;;;;;;;14.43;11.50;;;6.60;99.90;;;;;;5017206;28;20037;-53
2021/12/26 09:50:26;;;;;;;12.35;8.55;;;6.50;99.90;;;;;;5037255;28;20029;-53
2021/12/26 09:52:53;;;;;;;11.80;7.65;;;6.30;99.90;;;;;;5037320;28;20040;-52
2021/12/26 09:55:21;;;;;;;12.70;10.57;;;6.30;99.90;;;;;;5036521;28;20117;-50
2021/12/26 09:57:47;;;;;;;12.75;8.68;;;6.30;99.90;;;;;;5008252;28;20037;-52
2021/12/26 10:00:25;;;;;;;11.40;9.30;;;6.40;99.90;;;;;;5039146;28;20037;-53
2021/12/26 10:03:11;;;;;;;11.82;8.38;;;6.50;99.90;;;;;;5035580;28;20350;-53
2021/12/26 10:05:57;;;;;;;15.30;12.00;;;6.40;99.90;;;;;;5025334;28;20476;-52
2021/12/26 10:08:24;;;;;;;9.75;7.30;;;6.30;99.90;;;;;;5024659;28;20590;-50
2021/12/26 10:11:06;;;;;;;14.00;11.18;;;6.10;99.90;;;;;;4992638;28;20053;-51
2021/12/26 10:13:45;;;;;;;7.85;5.95;;;6.10;99.90;;;;;;4986959;28;20073;-54
2021/12/26 10:16:12;;;;;;;11.10;8.73;;;6.00;99.90;;;;;;4994526;28;20416;-51
2021/12/26 10:18:41;;;;;;;23.42;17.58;;;6.10;99.90;;;;;;4993407;28;20038;-53
2021/12/26 10:21:28;;;;;;;11.90;9.38;;;6.30;99.90;;;;;;4997057;28;20420;-52
2021/12/26 10:23:56;;;;;;;11.65;9.10;;;6.30;99.90;;;;;;4993864;28;20184;-53
2021/12/26 10:26:28;;;;;;;11.40;8.23;;;6.20;99.90;;;;;;5031870;28;20115;-52
2021/12/26 10:29:09;;;;;;;9.23;7.45;;;6.30;99.90;;;;;;5003066;28;20034;-53
2021/12/26 10:31:38;;;;;;;11.02;7.13;;;6.30;99.90;;;;;;5019827;28;20045;-53
2021/12/26 10:34:04;;;;;;;9.45;6.90;;;6.20;99.90;;;;;;5025579;28;20369;-54
2021/12/26 10:36:30;;;;;;;17.13;11.52;;;6.10;99.90;;;;;;5027905;28;20032;-51
2021/12/26 10:39:26;;;;;;;9.82;7.85;;;6.10;99.90;;;;;;5035846;28;20090;-52
2021/12/26 10:41:56;;;;;;;9.45;8.05;;;6.40;99.90;;;;;;4997323;28;20048;-54
2021/12/26 10:44:32;;;;;;;14.57;9.52;;;6.30;99.90;;;;;;4992480;28;20037;-53
2021/12/26 10:47:05;;;;;;;11.85;7.45;;;6.50;99.90;;;;;;5026348;28;20088;-54
2021/12/26 10:49:32;;;;;;;12.48;8.75;;;6.50;99.90;;;;;;5023330;28;20036;-53
2021/12/26 10:51:59;;;;;;;20.77;14.48;;;6.40;99.90;;;;;;5029952;28;20041;-53
2021/12/26 10:54:31;;;;;;;22.38;16.58;;;6.20;99.90;;;;;;5027675;28;20226;-52
2021/12/26 10:57:13;;;;;;;13.57;10.57;;;6.40;99.90;;;;;;5028593;28;20037;-54
2021/12/26 10:59:40;;;;;;;;;;;6.40;99.90;;;;;;4998105;28;20271;-52
2021/12/26 11:02:06;;;;;;;16.23;12.70;;;6.30;99.90;;;;;;5028031;28;19910;-53
2021/12/26 11:04:32;;;;;;;15.35;10.88;;;6.40;99.90;;;;;;4997756;28;20041;-51
2021/12/26 11:07:10;;;;;;;21.02;13.57;;;6.50;99.90;;;;;;5025981;28;20096;-52
2021/12/26 11:09:36;;;;;;;15.40;12.60;;;6.40;99.90;;;;;;5030417;28;20473;-52
2021/12/26 11:12:09;;;;;;;16.38;12.18;;;6.40;99.90;;;;;;5025148;28;20046;-50
2021/12/26 11:15:01;;;;;;;13.00;9.32;;;6.40;99.90;;;;;;5022530;28;20022;-51
2021/12/26 11:17:32;;;;;;;19.73;13.98;;;6.00;99.90;;;;;;5025116;28;20025;-52
2021/12/26 11:19:59;;;;;;;20.30;10.20;;;5.90;99.90;;;;;;5021391;28;20489;-54
2021/12/26 11:22:25;;;;;;;26.30;15.82;;;5.80;99.90;;;;;;5000255;28;20370;-52
2021/12/26 11:24:53;;;;;;;28.90;18.08;;;5.70;99.90;;;;;;5027497;28;20524;-53
2021/12/26 11:27:21;;;;;;;24.75;17.10;;;5.90;99.90;;;;;;5025723;28;20406;-53
2021/12/26 11:29:48;;;;;;;72.00;41.08;;;5.70;99.90;;;;;;5023796;28;20477;-53
2021/12/26 11:32:16;;;;;;;44.63;25.77;;;5.80;99.90;;;;;;5022596;28;20045;-50
2021/12/26 11:34:46;;;;;;;50.88;30.05;;;5.80;99.90;;;;;;5027113;28;20033;-49
2021/12/26 11:37:12;;;;;;;42.50;22.17;;;5.90;99.90;;;;;;5026351;28;20100;-54
2021/12/26 11:39:40;;;;;;;48.92;23.20;;;5.80;99.90;;;;;;4997393;28;20493;-51
2021/12/26 11:42:06;;;;;;;23.90;18.35;;;5.70;99.90;;;;;;5020738;28;20038;-51
2021/12/26 11:44:50;;;;;;;13.25;8.05;;;5.60;99.90;;;;;;5028040;28;20354;-54
2021/12/26 11:47:25;;;;;;;24.58;16.98;;;5.60;99.90;;;;;;5028475;28;20347;-54
2021/12/26 11:50:04;;;;;;;16.85;12.93;;;5.60;99.90;;;;;;5022081;28;20030;-55
2021/12/26 11:53:11;;;;;;;24.98;16.25;;;5.80;99.90;;;;;;5029647;28;20074;-51
2021/12/26 11:55:49;;;;;;;23.42;15.00;;;6.00;99.90;;;;;;4995480;28;20046;-53
2021/12/26 11:58:20;;;;;;;23.70;15.93;;;6.10;99.90;;;;;;5027666;28;20026;-53
2021/12/26 12:00:52;;;;;;;20.67;15.13;;;6.30;99.90;;;;;;4998812;28;20041;-51
2021/12/26 12:03:27;;;;;;;77.80;40.47;;;6.40;99.90;;;;;;5025948;28;20060;-52
2021/12/26 12:05:54;;;;;;;28.27;19.88;;;6.40;99.90;;;;;;5021898;28;20030;-54
2021/12/26 12:08:23;;;;;;;24.30;16.52;;;6.70;99.90;;;;;;4999719;28;20044;-52
2021/12/26 12:10:57;;;;;;;25.52;15.57;;;6.70;99.90;;;;;;5025016;28;20026;-54
2021/12/26 12:13:26;;;;;;;28.35;18.60;;;6.60;99.90;;;;;;5004342;28;20531;-54
2021/12/26 12:16:31;;;;;;;36.60;20.20;;;6.60;99.90;;;;;;5034380;28;20048;-55
2021/12/26 12:19:04;;;;;;;19.80;12.45;;;6.50;99.90;;;;;;5022888;28;20064;-52
2021/12/26 12:21:43;;;;;;;26.85;15.88;;;6.50;99.90;;;;;;5021270;28;20045;-51
2021/12/26 12:24:14;;;;;;;24.67;15.30;;;6.50;99.90;;;;;;5025674;28;20064;-51
2021/12/26 12:26:59;;;;;;;19.60;14.80;;;6.40;99.90;;;;;;5029840;28;20063;-53
2021/12/26 12:29:24;;;;;;;17.08;11.77;;;6.40;99.90;;;;;;5024799;28;20542;-51
2021/12/26 12:32:08;;;;;;;19.23;13.73;;;6.20;99.90;;;;;;4986776;28;20045;-54
2021/12/26 12:34:52;;;;;;;27.67;19.45;;;6.20;99.90;;;;;;5021394;28;20039;-51
2021/12/26 12:37:39;;;;;;;34.22;23.02;;;6.20;99.90;;;;;;5020550;28;20461;-54
2021/12/26 12:40:33;;;;;;;21.60;13.73;;;6.30;99.90;;;;;;4979263;28;20058;-51
2021/12/26 12:43:10;;;;;;;34.95;21.27;;;6.00;99.90;;;;;;5019114;28;20038;-53
2021/12/26 12:46:04;;;;;;;29.05;19.08;;;5.80;99.90;;;;;;5023301;28;20038;-50
2021/12/26 12:48:41;;;;;;;27.70;18.90;;;6.00;99.90;;;;;;5026218;28;20076;-52
2021/12/26 12:51:16;;;;;;;23.58;17.30;;;6.10;99.90;;;;;;4988465;28;20038;-54
2021/12/26 12:54:04;;;;;;;38.50;25.27;;;6.10;99.90;;;;;;5027120;28;20045;-53
2021/12/26 12:56:30;;;;;;;20.58;13.95;;;6.10;99.90;;;;;;5020438;28;20121;-54
2021/12/26 13:01:42;;;;;;;24.02;16.30;;;6.00;99.90;;;;;;5021711;28;20026;-54
2021/12/26 13:04:09;;;;;;;23.60;16.02;;;6.00;99.90;;;;;;5027278;28;20080;-52
2021/12/26 13:06:35;;;;;;;27.85;18.13;;;6.00;99.90;;;;;;5023036;28;20030;-50